DLH024 EDDF-EDDH
Flight info
| Callsign | DLH024 |
|---|---|
| Flight time | 0h 46m |
| Altitude | 33000 |
| Route | MARUN3W MARUN Y150 TOLGI DCT SAS/N0410F320 P605 NOLGO NOLGO6A |
| Aircraft | A320/M-SDE2E3FGIJ1LORWXYZ/HB1 |
Departure
| Time | 2026-05-07 11:02 |
|---|---|
| Airport | Frankfurt Main Airport (EDDF) |
Arrival
| Time | 2026-05-07 11:48 |
|---|---|
| Airport | Hamburg Helmut Schmidt Airport (EDDH) |
| Time | Latitude | Longitude | Altitude | Speed | Heading |
|---|---|---|---|---|---|
| 2026-05-07 10:27 | 50.04752 | 8.56883 | 365 ft | 0 kts | 294° |
| 2026-05-07 10:50 | 50.04745 | 8.56909 | 358 ft | 4 kts | 292° |
| 2026-05-07 10:51 | 50.04736 | 8.56941 | 363 ft | 3 kts | 295° |
| 2026-05-07 10:51 | 50.04731 | 8.56976 | 363 ft | 4 kts | 243° |
| 2026-05-07 10:51 | 50.04748 | 8.57002 | 365 ft | 3 kts | 204° |
| 2026-05-07 10:51 | 50.04772 | 8.57019 | 362 ft | 4 kts | 205° |
| 2026-05-07 10:52 | 50.04794 | 8.57035 | 359 ft | 2 kts | 205° |
| 2026-05-07 10:52 | 50.04795 | 8.57035 | 358 ft | 0 kts | 205° |
| 2026-05-07 10:54 | 50.04791 | 8.57033 | 356 ft | 5 kts | 205° |
| 2026-05-07 10:54 | 50.04729 | 8.56987 | 363 ft | 10 kts | 204° |
| 2026-05-07 10:54 | 50.04668 | 8.56945 | 358 ft | 9 kts | 204° |
| 2026-05-07 10:55 | 50.04614 | 8.56915 | 356 ft | 7 kts | 194° |
| 2026-05-07 10:55 | 50.04566 | 8.56897 | 358 ft | 5 kts | 193° |
| 2026-05-07 10:55 | 50.04524 | 8.56882 | 359 ft | 10 kts | 193° |
| 2026-05-07 10:55 | 50.04461 | 8.56860 | 359 ft | 8 kts | 193° |
| 2026-05-07 10:56 | 50.04408 | 8.56846 | 363 ft | 7 kts | 188° |
| 2026-05-07 10:56 | 50.04367 | 8.56836 | 360 ft | 5 kts | 190° |
| 2026-05-07 10:56 | 50.04335 | 8.56827 | 360 ft | 4 kts | 190° |
| 2026-05-07 10:56 | 50.04295 | 8.56842 | 362 ft | 10 kts | 145° |
| 2026-05-07 10:57 | 50.04285 | 8.56940 | 363 ft | 10 kts | 76° |
| 2026-05-07 10:57 | 50.04312 | 8.57048 | 361 ft | 13 kts | 69° |
| 2026-05-07 10:57 | 50.04344 | 8.57179 | 364 ft | 12 kts | 69° |
| 2026-05-07 10:57 | 50.04371 | 8.57295 | 365 ft | 11 kts | 69° |
| 2026-05-07 10:58 | 50.04396 | 8.57398 | 365 ft | 11 kts | 70° |
| 2026-05-07 10:58 | 50.04423 | 8.57520 | 361 ft | 11 kts | 70° |
| 2026-05-07 10:58 | 50.04446 | 8.57612 | 369 ft | 7 kts | 69° |
| 2026-05-07 10:58 | 50.04461 | 8.57677 | 366 ft | 6 kts | 69° |
| 2026-05-07 10:59 | 50.04492 | 8.57804 | 367 ft | 16 kts | 69° |
| 2026-05-07 10:59 | 50.04529 | 8.57958 | 368 ft | 14 kts | 69° |
| 2026-05-07 10:59 | 50.04512 | 8.58074 | 365 ft | 10 kts | 152° |
| 2026-05-07 10:59 | 50.04483 | 8.58092 | 365 ft | 0 kts | 159° |
| 2026-05-07 11:00 | 50.04433 | 8.58121 | 368 ft | 9 kts | 159° |
| 2026-05-07 11:00 | 50.04387 | 8.58126 | 367 ft | 6 kts | 210° |
| 2026-05-07 11:00 | 50.04364 | 8.58076 | 366 ft | 6 kts | 245° |
| 2026-05-07 11:01 | 50.04348 | 8.58013 | 367 ft | 10 kts | 249° |
| 2026-05-07 11:01 | 50.04249 | 8.57604 | 364 ft | 77 kts | 249° |
| 2026-05-07 11:01 | 50.03988 | 8.56504 | 357 ft | 137 kts | 249° |
| 2026-05-07 11:01 | 50.03617 | 8.54933 | 598 ft | 165 kts | 249° |
| 2026-05-07 11:02 | 50.03147 | 8.53174 | 945 ft | 185 kts | 247° |
| 2026-05-07 11:02 | 50.02635 | 8.51252 | 1418 ft | 198 kts | 250° |
| 2026-05-07 11:02 | 50.01878 | 8.49425 | 2173 ft | 205 kts | 226° |
| 2026-05-07 11:02 | 50.00668 | 8.48223 | 3012 ft | 212 kts | 200° |
| 2026-05-07 11:03 | 49.99203 | 8.47778 | 3859 ft | 216 kts | 190° |
| 2026-05-07 11:03 | 49.97715 | 8.47445 | 4722 ft | 218 kts | 190° |
| 2026-05-07 11:03 | 49.96208 | 8.47101 | 5552 ft | 220 kts | 194° |
| 2026-05-07 11:03 | 49.94672 | 8.46444 | 6058 ft | 241 kts | 198° |
| 2026-05-07 11:04 | 49.93010 | 8.45664 | 6633 ft | 255 kts | 202° |
| 2026-05-07 11:04 | 49.91509 | 8.44202 | 6941 ft | 256 kts | 231° |
| 2026-05-07 11:04 | 49.90699 | 8.41822 | 7020 ft | 249 kts | 261° |
| 2026-05-07 11:04 | 49.90726 | 8.39190 | 7026 ft | 244 kts | 288° |
| 2026-05-07 11:05 | 49.91522 | 8.36911 | 7033 ft | 242 kts | 314° |
| 2026-05-07 11:05 | 49.92893 | 8.35439 | 7046 ft | 242 kts | 336° |
| 2026-05-07 11:05 | 49.93948 | 8.34743 | 7050 ft | 256 kts | 337° |
| 2026-05-07 11:05 | 49.95620 | 8.33656 | 7042 ft | 263 kts | 337° |
| 2026-05-07 11:06 | 49.97341 | 8.32543 | 7640 ft | 270 kts | 337° |
| 2026-05-07 11:06 | 49.99076 | 8.31421 | 8649 ft | 271 kts | 336° |
| 2026-05-07 11:06 | 50.00824 | 8.30285 | 9574 ft | 274 kts | 336° |
| 2026-05-07 11:06 | 50.02610 | 8.29159 | 10351 ft | 283 kts | 340° |
| 2026-05-07 11:07 | 50.04620 | 8.28537 | 10657 ft | 309 kts | 356° |
| 2026-05-07 11:07 | 50.06813 | 8.28855 | 11216 ft | 323 kts | 12° |
| 2026-05-07 11:07 | 50.08968 | 8.29956 | 11981 ft | 329 kts | 17° |
| 2026-05-07 11:07 | 50.11149 | 8.31115 | 12794 ft | 333 kts | 17° |
| 2026-05-07 11:08 | 50.13354 | 8.32266 | 13596 ft | 336 kts | 17° |
| 2026-05-07 11:08 | 50.15581 | 8.33422 | 14327 ft | 339 kts | 17° |
| 2026-05-07 11:08 | 50.17832 | 8.34592 | 15005 ft | 343 kts | 17° |
| 2026-05-07 11:08 | 50.20104 | 8.35774 | 15673 ft | 346 kts | 17° |
| 2026-05-07 11:09 | 50.22401 | 8.36975 | 16334 ft | 350 kts | 17° |
| 2026-05-07 11:09 | 50.24725 | 8.38198 | 17005 ft | 354 kts | 17° |
| 2026-05-07 11:09 | 50.27072 | 8.39435 | 17682 ft | 358 kts | 17° |
| 2026-05-07 11:09 | 50.29442 | 8.40683 | 18319 ft | 362 kts | 17° |
| 2026-05-07 11:10 | 50.31840 | 8.41965 | 18887 ft | 366 kts | 17° |
| 2026-05-07 11:10 | 50.34252 | 8.43277 | 19470 ft | 369 kts | 18° |
| 2026-05-07 11:10 | 50.36678 | 8.44610 | 20069 ft | 371 kts | 18° |
| 2026-05-07 11:10 | 50.39123 | 8.45957 | 20653 ft | 374 kts | 18° |
| 2026-05-07 11:11 | 50.41591 | 8.47316 | 21202 ft | 377 kts | 19° |
| 2026-05-07 11:11 | 50.44074 | 8.48683 | 21744 ft | 380 kts | 18° |
| 2026-05-07 11:11 | 50.46581 | 8.50058 | 22284 ft | 383 kts | 19° |
| 2026-05-07 11:11 | 50.49116 | 8.51406 | 22796 ft | 386 kts | 17° |
| 2026-05-07 11:12 | 50.51691 | 8.52676 | 23320 ft | 389 kts | 15° |
| 2026-05-07 11:12 | 50.54299 | 8.53904 | 23793 ft | 393 kts | 15° |
| 2026-05-07 11:12 | 50.56926 | 8.55119 | 24225 ft | 395 kts | 15° |
| 2026-05-07 11:12 | 50.59578 | 8.56349 | 24612 ft | 399 kts | 16° |
| 2026-05-07 11:13 | 50.62249 | 8.57605 | 25037 ft | 402 kts | 16° |
| 2026-05-07 11:13 | 50.64932 | 8.58885 | 25464 ft | 404 kts | 17° |
| 2026-05-07 11:13 | 50.67630 | 8.60187 | 25884 ft | 406 kts | 17° |
| 2026-05-07 11:13 | 50.70340 | 8.61499 | 26303 ft | 409 kts | 17° |
| 2026-05-07 11:14 | 50.73066 | 8.62816 | 26716 ft | 411 kts | 17° |
| 2026-05-07 11:14 | 50.75806 | 8.64144 | 27123 ft | 413 kts | 17° |
| 2026-05-07 11:14 | 50.78534 | 8.65608 | 27515 ft | 415 kts | 23° |
| 2026-05-07 11:14 | 50.81094 | 8.67731 | 27904 ft | 418 kts | 33° |
| 2026-05-07 11:15 | 50.83399 | 8.70532 | 28285 ft | 420 kts | 43° |
| 2026-05-07 11:15 | 50.85380 | 8.73945 | 28664 ft | 422 kts | 52° |
| 2026-05-07 11:15 | 50.87154 | 8.77661 | 29048 ft | 424 kts | 53° |
| 2026-05-07 11:15 | 50.88939 | 8.81400 | 29428 ft | 427 kts | 53° |
| 2026-05-07 11:16 | 50.90736 | 8.85160 | 29810 ft | 429 kts | 53° |
| 2026-05-07 11:16 | 50.92541 | 8.88933 | 30160 ft | 431 kts | 53° |
| 2026-05-07 11:16 | 50.94357 | 8.92727 | 30442 ft | 433 kts | 52° |
| 2026-05-07 11:16 | 50.96184 | 8.96550 | 30727 ft | 436 kts | 52° |
| 2026-05-07 11:17 | 50.98019 | 9.00396 | 30989 ft | 439 kts | 52° |
| 2026-05-07 11:17 | 50.99865 | 9.04276 | 31263 ft | 441 kts | 53° |
| 2026-05-07 11:17 | 51.01713 | 9.08177 | 31489 ft | 443 kts | 53° |
| 2026-05-07 11:17 | 51.03562 | 9.12095 | 31722 ft | 444 kts | 53° |
| 2026-05-07 11:18 | 51.05389 | 9.15972 | 32094 ft | 444 kts | 53° |
| 2026-05-07 11:18 | 51.07243 | 9.19889 | 32455 ft | 444 kts | 51° |
| 2026-05-07 11:18 | 51.09328 | 9.23490 | 32792 ft | 443 kts | 41° |
| 2026-05-07 11:18 | 51.11766 | 9.26480 | 32999 ft | 443 kts | 32° |
| 2026-05-07 11:19 | 51.14431 | 9.28785 | 33034 ft | 429 kts | 22° |
| 2026-05-07 11:19 | 51.17230 | 9.30277 | 33028 ft | 421 kts | 12° |
| 2026-05-07 11:19 | 51.22925 | 9.32305 | 33029 ft | 419 kts | 11° |
| 2026-05-07 11:20 | 51.28630 | 9.34243 | 33024 ft | 419 kts | 11° |
| 2026-05-07 11:20 | 51.34335 | 9.36193 | 33013 ft | 419 kts | 12° |
| 2026-05-07 11:21 | 51.40038 | 9.38177 | 33031 ft | 419 kts | 12° |
| 2026-05-07 11:21 | 51.45742 | 9.40173 | 33028 ft | 419 kts | 12° |
| 2026-05-07 11:22 | 51.51436 | 9.42177 | 33026 ft | 419 kts | 12° |
| 2026-05-07 11:22 | 51.57126 | 9.44182 | 33024 ft | 419 kts | 12° |
| 2026-05-07 11:23 | 51.62819 | 9.46180 | 33020 ft | 418 kts | 12° |
| 2026-05-07 11:23 | 51.68504 | 9.48183 | 33018 ft | 418 kts | 12° |
| 2026-05-07 11:24 | 51.74187 | 9.50200 | 33015 ft | 418 kts | 11° |
| 2026-05-07 11:24 | 51.79864 | 9.52222 | 33015 ft | 418 kts | 12° |
| 2026-05-07 11:25 | 51.85340 | 9.55276 | 33016 ft | 418 kts | 26° |
| 2026-05-07 11:25 | 51.90517 | 9.59561 | 33018 ft | 418 kts | 27° |
| 2026-05-07 11:26 | 51.95695 | 9.63861 | 33020 ft | 418 kts | 27° |
| 2026-05-07 11:26 | 52.00871 | 9.68160 | 33026 ft | 418 kts | 26° |
| 2026-05-07 11:27 | 52.06061 | 9.72468 | 33025 ft | 418 kts | 27° |
| 2026-05-07 11:27 | 52.11238 | 9.76783 | 33025 ft | 418 kts | 26° |
| 2026-05-07 11:28 | 52.16401 | 9.81117 | 33038 ft | 417 kts | 27° |
| 2026-05-07 11:28 | 52.21593 | 9.85486 | 32411 ft | 426 kts | 27° |
| 2026-05-07 11:29 | 52.24232 | 9.87671 | 31863 ft | 422 kts | 24° |
| 2026-05-07 11:29 | 52.26979 | 9.89269 | 31385 ft | 417 kts | 14° |
| 2026-05-07 11:29 | 52.29764 | 9.90481 | 30897 ft | 413 kts | 14° |
| 2026-05-07 11:29 | 52.32530 | 9.91689 | 30427 ft | 409 kts | 14° |
| 2026-05-07 11:30 | 52.35268 | 9.92890 | 29926 ft | 406 kts | 14° |
| 2026-05-07 11:30 | 52.37974 | 9.94080 | 29472 ft | 400 kts | 14° |
| 2026-05-07 11:30 | 52.40644 | 9.95256 | 29023 ft | 394 kts | 14° |
| 2026-05-07 11:30 | 52.43273 | 9.96416 | 28581 ft | 389 kts | 15° |
| 2026-05-07 11:31 | 52.45864 | 9.97561 | 28147 ft | 383 kts | 14° |
| 2026-05-07 11:31 | 52.48422 | 9.98695 | 27754 ft | 379 kts | 14° |
| 2026-05-07 11:31 | 52.50949 | 9.99815 | 27331 ft | 374 kts | 15° |
| 2026-05-07 11:31 | 52.53452 | 10.00923 | 26908 ft | 370 kts | 14° |
| 2026-05-07 11:32 | 52.58385 | 10.03117 | 26038 ft | 364 kts | 14° |
| 2026-05-07 11:32 | 52.60819 | 10.04207 | 25586 ft | 362 kts | 14° |
| 2026-05-07 11:32 | 52.63248 | 10.05296 | 25137 ft | 361 kts | 14° |
| 2026-05-07 11:33 | 52.65667 | 10.06379 | 24673 ft | 360 kts | 14° |
| 2026-05-07 11:33 | 52.68078 | 10.07459 | 24201 ft | 359 kts | 14° |
| 2026-05-07 11:33 | 52.70489 | 10.08541 | 23738 ft | 359 kts | 14° |
| 2026-05-07 11:33 | 52.72894 | 10.09619 | 23220 ft | 358 kts | 14° |
| 2026-05-07 11:34 | 52.75314 | 10.10484 | 22716 ft | 354 kts | 2° |
| 2026-05-07 11:34 | 52.77740 | 10.10190 | 22291 ft | 348 kts | 344° |
| 2026-05-07 11:34 | 52.79992 | 10.08835 | 21901 ft | 344 kts | 335° |
| 2026-05-07 11:34 | 52.82228 | 10.07304 | 21106 ft | 348 kts | 335° |
| 2026-05-07 11:35 | 52.84454 | 10.05772 | 20349 ft | 345 kts | 335° |
| 2026-05-07 11:35 | 52.86660 | 10.04250 | 19547 ft | 343 kts | 335° |
| 2026-05-07 11:35 | 52.88868 | 10.02723 | 18699 ft | 344 kts | 335° |
| 2026-05-07 11:35 | 52.91073 | 10.01195 | 17794 ft | 343 kts | 335° |
| 2026-05-07 11:36 | 52.93274 | 9.99673 | 16843 ft | 342 kts | 336° |
| 2026-05-07 11:36 | 52.95467 | 9.98153 | 15943 ft | 341 kts | 336° |
| 2026-05-07 11:36 | 52.97650 | 9.96630 | 15059 ft | 340 kts | 337° |
| 2026-05-07 11:36 | 52.99824 | 9.95112 | 14189 ft | 338 kts | 337° |
| 2026-05-07 11:37 | 53.01984 | 9.93608 | 13291 ft | 336 kts | 337° |
| 2026-05-07 11:37 | 53.04131 | 9.92116 | 12368 ft | 333 kts | 338° |
| 2026-05-07 11:37 | 53.06261 | 9.90643 | 11539 ft | 328 kts | 338° |
| 2026-05-07 11:37 | 53.08349 | 9.89193 | 10789 ft | 322 kts | 338° |
| 2026-05-07 11:38 | 53.10398 | 9.87762 | 10051 ft | 317 kts | 339° |
| 2026-05-07 11:38 | 53.12416 | 9.86351 | 9253 ft | 312 kts | 339° |
| 2026-05-07 11:38 | 53.14407 | 9.84965 | 8465 ft | 308 kts | 339° |
| 2026-05-07 11:38 | 53.16365 | 9.83598 | 7690 ft | 303 kts | 339° |
| 2026-05-07 11:39 | 53.18295 | 9.82249 | 6935 ft | 299 kts | 340° |
| 2026-05-07 11:39 | 53.20202 | 9.80913 | 6180 ft | 295 kts | 340° |
| 2026-05-07 11:39 | 53.22080 | 9.79594 | 5414 ft | 291 kts | 340° |
| 2026-05-07 11:39 | 53.23890 | 9.78322 | 5111 ft | 274 kts | 338° |
| 2026-05-07 11:40 | 53.25594 | 9.76948 | 4990 ft | 272 kts | 337° |
| 2026-05-07 11:40 | 53.27284 | 9.75583 | 4984 ft | 269 kts | 337° |
| 2026-05-07 11:40 | 53.28969 | 9.74221 | 4988 ft | 269 kts | 337° |
| 2026-05-07 11:40 | 53.30655 | 9.72857 | 4987 ft | 269 kts | 337° |
| 2026-05-07 11:41 | 53.32338 | 9.71491 | 4984 ft | 269 kts | 337° |
| 2026-05-07 11:41 | 53.34024 | 9.70122 | 4988 ft | 269 kts | 337° |
| 2026-05-07 11:41 | 53.35710 | 9.68747 | 4987 ft | 270 kts | 337° |
| 2026-05-07 11:41 | 53.37400 | 9.67357 | 4992 ft | 271 kts | 339° |
| 2026-05-07 11:42 | 53.39186 | 9.66632 | 4952 ft | 261 kts | 4° |
| 2026-05-07 11:42 | 53.40894 | 9.67325 | 4550 ft | 251 kts | 31° |
| 2026-05-07 11:42 | 53.42421 | 9.68645 | 4180 ft | 249 kts | 21° |
| 2026-05-07 11:42 | 53.44088 | 9.69354 | 4058 ft | 238 kts | 15° |
| 2026-05-07 11:43 | 53.45659 | 9.69883 | 3929 ft | 228 kts | 14° |
| 2026-05-07 11:43 | 53.47200 | 9.70381 | 3526 ft | 230 kts | 14° |
| 2026-05-07 11:43 | 53.48758 | 9.71094 | 3077 ft | 230 kts | 28° |
| 2026-05-07 11:43 | 53.49996 | 9.72612 | 3009 ft | 213 kts | 49° |
| 2026-05-07 11:44 | 53.50929 | 9.74460 | 3008 ft | 204 kts | 52° |
| 2026-05-07 11:44 | 53.51827 | 9.76257 | 3004 ft | 196 kts | 52° |
| 2026-05-07 11:44 | 53.52683 | 9.77972 | 2903 ft | 190 kts | 51° |
| 2026-05-07 11:44 | 53.53531 | 9.79673 | 2674 ft | 190 kts | 51° |
| 2026-05-07 11:45 | 53.54369 | 9.81355 | 2438 ft | 185 kts | 52° |
| 2026-05-07 11:45 | 53.55185 | 9.82995 | 2191 ft | 182 kts | 51° |
| 2026-05-07 11:45 | 53.55991 | 9.84614 | 1944 ft | 179 kts | 51° |
| 2026-05-07 11:45 | 53.56758 | 9.86155 | 1737 ft | 165 kts | 51° |
| 2026-05-07 11:46 | 53.57455 | 9.87556 | 1503 ft | 146 kts | 52° |
| 2026-05-07 11:46 | 53.58082 | 9.88819 | 1291 ft | 136 kts | 52° |
| 2026-05-07 11:46 | 53.58671 | 9.90006 | 1113 ft | 130 kts | 52° |
| 2026-05-07 11:46 | 53.59249 | 9.91172 | 934 ft | 128 kts | 51° |
| 2026-05-07 11:47 | 53.59818 | 9.92319 | 756 ft | 129 kts | 53° |
| 2026-05-07 11:47 | 53.60388 | 9.93468 | 579 ft | 126 kts | 51° |
| 2026-05-07 11:47 | 53.60953 | 9.94608 | 402 ft | 128 kts | 54° |
| 2026-05-07 11:47 | 53.61520 | 9.95766 | 217 ft | 128 kts | 53° |
| 2026-05-07 11:48 | 53.62084 | 9.96893 | 63 ft | 124 kts | 52° |
| 2026-05-07 11:48 | 53.62590 | 9.97914 | 41 ft | 94 kts | 48° |
| 2026-05-07 11:48 | 53.62897 | 9.98552 | 44 ft | 38 kts | 51° |
| 2026-05-07 11:48 | 53.63034 | 9.98830 | 46 ft | 27 kts | 50° |
| 2026-05-07 11:49 | 53.63091 | 9.99043 | 46 ft | 18 kts | 81° |
| 2026-05-07 11:49 | 53.63092 | 9.99134 | 46 ft | 0 kts | 92° |
| 2026-05-07 11:49 | 53.63092 | 9.99148 | 46 ft | 6 kts | 93° |
| 2026-05-07 11:50 | 53.63087 | 9.99237 | 47 ft | 1 kts | 96° |
| 2026-05-07 11:51 | 53.63087 | 9.99238 | 47 ft | 0 kts | 96° |
| 2026-05-07 11:51 | 53.63084 | 9.99294 | 47 ft | 11 kts | 93° |
| 2026-05-07 11:51 | 53.63108 | 9.99423 | 46 ft | 13 kts | 61° |
| 2026-05-07 11:52 | 53.63166 | 9.99556 | 46 ft | 15 kts | 52° |
| 2026-05-07 11:52 | 53.63222 | 9.99674 | 48 ft | 8 kts | 56° |
| 2026-05-07 11:52 | 53.63210 | 9.99769 | 46 ft | 9 kts | 133° |
| 2026-05-07 11:52 | 53.63161 | 9.99819 | 48 ft | 8 kts | 154° |
| 2026-05-07 11:53 | 53.63109 | 9.99861 | 48 ft | 11 kts | 153° |
| 2026-05-07 11:53 | 53.63051 | 9.99911 | 48 ft | 7 kts | 153° |
| 2026-05-07 11:53 | 53.63009 | 9.99947 | 48 ft | 7 kts | 153° |
| 2026-05-07 11:53 | 53.62964 | 9.99992 | 48 ft | 9 kts | 139° |
| 2026-05-07 11:54 | 53.62956 | 10.00092 | 46 ft | 10 kts | 60° |
| 2026-05-07 11:54 | 53.63016 | 10.00167 | 48 ft | 11 kts | 32° |
| 2026-05-07 11:54 | 53.63087 | 10.00225 | 48 ft | 12 kts | 5° |
| 2026-05-07 11:54 | 53.63159 | 10.00252 | 48 ft | 9 kts | 51° |
| 2026-05-07 11:55 | 53.63167 | 10.00335 | 48 ft | 2 kts | 87° |
| 2026-05-07 11:55 | 53.63168 | 10.00363 | 48 ft | 0 kts | 86° |